createdAt,value
2023-05-10T00:00:36.562Z,396.00
2023-05-10T00:01:36.772Z,396.00
2023-05-10T00:02:36.814Z,398.00
2023-05-10T00:03:36.849Z,399.00
2023-05-10T00:04:36.792Z,398.00
2023-05-10T00:05:37.056Z,397.00
2023-05-10T00:06:36.869Z,394.00
2023-05-10T00:07:36.912Z,395.00
2023-05-10T00:08:36.943Z,395.00
2023-05-10T00:09:36.985Z,397.00
2023-05-10T00:10:37.028Z,395.00
2023-05-10T00:11:37.198Z,395.00
2023-05-10T00:12:37.144Z,395.00
2023-05-10T00:13:37.156Z,397.00
2023-05-10T00:14:37.176Z,396.00
2023-05-10T00:15:37.257Z,396.00
2023-05-10T00:16:37.419Z,397.00
2023-05-10T00:17:37.433Z,397.00
2023-05-10T00:18:37.424Z,395.00
2023-05-10T00:19:37.493Z,392.00
2023-05-10T00:20:37.511Z,392.00
2023-05-10T00:21:37.585Z,394.00
2023-05-10T00:22:37.635Z,395.00
2023-05-10T00:23:37.673Z,395.00
2023-05-10T00:24:37.778Z,395.00
2023-05-10T00:25:37.724Z,394.00
2023-05-10T00:26:37.791Z,395.00
2023-05-10T00:27:37.824Z,394.00
2023-05-10T00:28:37.774Z,394.00
2023-05-10T00:29:37.760Z,394.00
2023-05-10T00:30:37.792Z,392.00
2023-05-10T00:31:37.847Z,391.00
2023-05-10T00:32:37.873Z,393.00
2023-05-10T00:33:37.844Z,396.00
2023-05-10T00:34:37.890Z,393.00
2023-05-10T00:35:37.935Z,393.00
2023-05-10T00:36:37.962Z,395.00
2023-05-10T00:37:38.027Z,397.00
2023-05-10T00:38:38.060Z,398.00
2023-05-10T00:39:38.102Z,394.00
2023-05-10T00:40:38.120Z,391.00
2023-05-10T00:41:38.150Z,390.00
2023-05-10T00:42:38.164Z,387.00
2023-05-10T00:43:38.291Z,387.00
2023-05-10T00:44:38.332Z,384.00
2023-05-10T00:45:38.269Z,386.00
2023-05-10T00:46:38.351Z,387.00
2023-05-10T00:47:38.493Z,386.00
2023-05-10T00:48:38.414Z,386.00
2023-05-10T00:49:38.463Z,388.00
2023-05-10T00:50:38.499Z,390.00
2023-05-10T00:51:38.538Z,392.00
2023-05-10T00:52:38.544Z,392.00
2023-05-10T00:53:38.546Z,392.00
2023-05-10T00:54:38.570Z,393.00
2023-05-10T00:55:38.588Z,394.00
2023-05-10T00:56:38.661Z,393.00
2023-05-10T00:57:38.669Z,395.00
2023-05-10T00:58:38.759Z,395.00
2023-05-10T00:59:38.756Z,395.00
2023-05-10T01:00:38.814Z,394.00
2023-05-10T01:01:38.877Z,398.00
2023-05-10T01:02:38.962Z,402.00
2023-05-10T01:03:39.007Z,401.00
2023-05-10T01:04:38.983Z,401.00
2023-05-10T01:05:38.994Z,401.00
2023-05-10T01:06:39.050Z,398.00
2023-05-10T01:07:39.175Z,396.00
2023-05-10T01:08:39.124Z,395.00
2023-05-10T01:09:39.176Z,397.00
2023-05-10T01:10:39.206Z,399.00
2023-05-10T01:11:39.292Z,398.00
2023-05-10T01:12:39.472Z,396.00
2023-05-10T01:13:39.355Z,394.00
2023-05-10T01:14:39.371Z,397.00
2023-05-10T01:15:39.491Z,397.00
2023-05-10T01:16:39.556Z,397.00
2023-05-10T01:17:39.543Z,398.00
2023-05-10T01:18:39.552Z,398.00
2023-05-10T01:19:39.597Z,398.00
2023-05-10T01:20:39.602Z,397.00
2023-05-10T01:21:39.632Z,395.00
2023-05-10T01:22:39.774Z,396.00
2023-05-10T01:23:39.867Z,397.00
2023-05-10T01:24:39.841Z,396.00
2023-05-10T01:25:39.923Z,396.00
2023-05-10T01:26:39.875Z,394.00
2023-05-10T01:27:39.849Z,395.00
2023-05-10T01:28:39.957Z,396.00
2023-05-10T01:29:39.942Z,398.00
2023-05-10T01:30:39.993Z,400.00
2023-05-10T01:31:40.063Z,399.00
2023-05-10T01:32:40.094Z,397.00
2023-05-10T01:33:40.119Z,398.00
2023-05-10T01:34:40.163Z,397.00
2023-05-10T01:35:40.207Z,400.00
2023-05-10T01:36:40.268Z,400.00
2023-05-10T01:37:40.318Z,398.00
2023-05-10T01:38:40.514Z,397.00
2023-05-10T01:39:40.396Z,398.00
2023-05-10T01:40:40.408Z,398.00
2023-05-10T01:41:40.584Z,397.00
2023-05-10T01:42:40.439Z,396.00
2023-05-10T01:43:40.455Z,395.00
2023-05-10T01:44:40.518Z,395.00
2023-05-10T01:45:40.547Z,394.00
2023-05-10T01:46:40.582Z,394.00
2023-05-10T01:47:40.592Z,397.00
2023-05-10T01:48:40.580Z,395.00
2023-05-10T01:49:40.615Z,396.00
2023-05-10T01:50:40.737Z,395.00
2023-05-10T01:51:40.780Z,395.00
2023-05-10T01:52:40.704Z,394.00
2023-05-10T01:53:40.751Z,394.00
2023-05-10T01:54:40.765Z,393.00
2023-05-10T01:55:40.804Z,396.00
2023-05-10T01:56:40.853Z,397.00
2023-05-10T01:57:40.893Z,398.00
2023-05-10T01:58:40.911Z,397.00
2023-05-10T01:59:40.911Z,394.00
2023-05-10T02:00:41.109Z,392.00
2023-05-10T02:01:41.107Z,392.00
2023-05-10T02:02:41.015Z,395.00
2023-05-10T02:03:41.335Z,396.00
2023-05-10T02:04:41.193Z,396.00
2023-05-10T02:05:41.234Z,395.00
2023-05-10T02:06:41.250Z,391.00
2023-05-10T02:07:41.292Z,393.00
2023-05-10T02:08:41.418Z,391.00
2023-05-10T02:09:41.366Z,391.00
2023-05-10T02:10:41.358Z,390.00
2023-05-10T02:11:41.315Z,394.00
2023-05-10T02:12:41.413Z,394.00
2023-05-10T02:13:41.406Z,391.00
2023-05-10T02:14:41.439Z,391.00
2023-05-10T02:15:41.456Z,391.00
2023-05-10T02:16:41.656Z,389.00
2023-05-10T02:17:41.565Z,390.00
2023-05-10T02:18:41.545Z,393.00
2023-05-10T02:19:41.575Z,392.00
2023-05-10T02:20:41.632Z,390.00
2023-05-10T02:21:41.646Z,392.00
2023-05-10T02:22:41.720Z,390.00
2023-05-10T02:23:41.853Z,391.00
2023-05-10T02:24:41.736Z,389.00
2023-05-10T02:25:41.958Z,390.00
2023-05-10T02:26:41.931Z,389.00
2023-05-10T02:27:41.860Z,389.00
2023-05-10T02:28:42.037Z,390.00
2023-05-10T02:29:41.924Z,387.00
2023-05-10T02:30:41.963Z,387.00
2023-05-10T02:31:42.140Z,388.00
2023-05-10T02:32:42.093Z,387.00
2023-05-10T02:33:42.124Z,388.00
2023-05-10T02:34:42.131Z,388.00
2023-05-10T02:35:42.191Z,389.00
2023-05-10T02:36:42.220Z,391.00
2023-05-10T02:37:42.265Z,389.00
2023-05-10T02:38:42.268Z,387.00
2023-05-10T02:39:42.410Z,387.00
2023-05-10T02:40:42.425Z,387.00
2023-05-10T02:41:42.361Z,388.00
2023-05-10T02:42:42.420Z,389.00
2023-05-10T02:43:42.481Z,388.00
2023-05-10T02:44:42.456Z,389.00
2023-05-10T02:45:42.575Z,388.00
2023-05-10T02:46:42.502Z,387.00
2023-05-10T02:47:42.624Z,388.00
2023-05-10T02:48:42.544Z,388.00
2023-05-10T02:49:42.569Z,389.00
2023-05-10T02:50:42.589Z,391.00
2023-05-10T02:51:42.623Z,393.00
2023-05-10T02:52:42.676Z,394.00
2023-05-10T02:53:42.728Z,392.00
2023-05-10T02:54:42.734Z,389.00
2023-05-10T02:55:42.780Z,385.00
2023-05-10T02:56:42.818Z,385.00
2023-05-10T02:57:42.854Z,382.00
2023-05-10T02:58:42.870Z,381.00
2023-05-10T02:59:42.889Z,380.00
2023-05-10T03:00:42.932Z,381.00
2023-05-10T03:01:43.029Z,381.00
2023-05-10T03:02:43.148Z,383.00
2023-05-10T03:03:43.046Z,384.00
2023-05-10T03:04:43.085Z,382.00
2023-05-10T03:05:43.110Z,381.00
2023-05-10T03:06:43.141Z,383.00
2023-05-10T03:07:43.200Z,383.00
2023-05-10T03:08:43.234Z,384.00
2023-05-10T03:09:43.279Z,383.00
2023-05-10T03:10:43.332Z,385.00
2023-05-10T03:11:43.345Z,386.00
2023-05-10T03:12:43.399Z,386.00
2023-05-10T03:13:43.565Z,387.00
2023-05-10T03:14:43.427Z,387.00
2023-05-10T03:15:43.486Z,388.00
2023-05-10T03:16:44.877Z,388.00
2023-05-10T03:17:43.571Z,387.00
2023-05-10T03:18:43.556Z,386.00
2023-05-10T03:19:43.737Z,383.00
2023-05-10T03:20:43.725Z,382.00
2023-05-10T03:21:43.633Z,382.00
2023-05-10T03:22:43.758Z,383.00
2023-05-10T03:23:43.848Z,383.00
2023-05-10T03:24:43.752Z,384.00
2023-05-10T03:25:43.776Z,386.00
2023-05-10T03:26:43.799Z,387.00
2023-05-10T03:27:43.823Z,387.00
2023-05-10T03:28:43.852Z,388.00
2023-05-10T03:29:43.882Z,388.00
2023-05-10T03:30:43.929Z,390.00
2023-05-10T03:31:44.054Z,391.00
2023-05-10T03:32:44.021Z,390.00
2023-05-10T03:33:43.997Z,390.00
2023-05-10T03:34:44.088Z,391.00
2023-05-10T03:35:44.048Z,390.00
2023-05-10T03:36:44.124Z,389.00
2023-05-10T03:37:44.164Z,390.00
2023-05-10T03:38:44.159Z,391.00
2023-05-10T03:39:44.206Z,391.00
2023-05-10T03:40:44.219Z,389.00
2023-05-10T03:41:44.269Z,389.00
2023-05-10T03:42:44.293Z,389.00
2023-05-10T03:43:44.450Z,388.00
2023-05-10T03:44:44.381Z,384.00
2023-05-10T03:45:44.428Z,381.00
2023-05-10T03:46:44.461Z,378.00
2023-05-10T03:47:44.483Z,378.00
2023-05-10T03:48:44.507Z,382.00
2023-05-10T03:49:44.536Z,380.00
2023-05-10T03:50:44.552Z,379.00
2023-05-10T03:51:44.701Z,380.00
2023-05-10T03:52:44.652Z,383.00
2023-05-10T03:53:44.694Z,384.00
2023-05-10T03:54:44.721Z,385.00
2023-05-10T03:55:44.763Z,384.00
2023-05-10T03:56:44.810Z,383.00
2023-05-10T03:57:44.914Z,384.00
2023-05-10T03:58:45.078Z,387.00
2023-05-10T03:59:45.038Z,388.00
2023-05-10T04:00:44.964Z,388.00
2023-05-10T04:01:45.066Z,386.00
2023-05-10T04:02:46.264Z,385.00
2023-05-10T04:03:45.189Z,387.00
2023-05-10T04:04:45.228Z,389.00
2023-05-10T04:05:45.168Z,388.00
2023-05-10T04:06:45.202Z,389.00
2023-05-10T04:07:45.268Z,389.00
2023-05-10T04:08:45.287Z,390.00
2023-05-10T04:09:45.309Z,390.00
2023-05-10T04:10:45.341Z,392.00
2023-05-10T04:11:45.359Z,390.00
2023-05-10T04:12:45.426Z,392.00
2023-05-10T04:13:45.415Z,392.00
2023-05-10T04:14:45.458Z,392.00
2023-05-10T04:15:45.498Z,391.00
2023-05-10T04:16:45.595Z,390.00
2023-05-10T04:17:45.589Z,389.00
2023-05-10T04:18:45.537Z,390.00
2023-05-10T04:19:45.703Z,386.00
2023-05-10T04:20:45.627Z,386.00
2023-05-10T04:21:45.651Z,385.00
2023-05-10T04:22:45.683Z,387.00
2023-05-10T04:23:45.711Z,387.00
2023-05-10T04:24:45.760Z,387.00
2023-05-10T04:25:45.790Z,387.00
2023-05-10T04:26:45.823Z,388.00
2023-05-10T04:27:45.863Z,388.00
2023-05-10T04:28:45.899Z,391.00
2023-05-10T04:29:45.923Z,391.00
2023-05-10T04:30:45.986Z,392.00
2023-05-10T04:31:46.061Z,391.00
2023-05-10T04:32:46.042Z,393.00
2023-05-10T04:33:46.118Z,393.00
2023-05-10T04:34:46.061Z,391.00
2023-05-10T04:35:46.069Z,391.00
2023-05-10T04:36:46.099Z,390.00
2023-05-10T04:37:46.114Z,391.00
2023-05-10T04:38:46.136Z,390.00
2023-05-10T04:39:46.206Z,390.00
2023-05-10T04:40:46.220Z,389.00
2023-05-10T04:41:46.262Z,388.00
2023-05-10T04:42:46.310Z,388.00
2023-05-10T04:43:46.346Z,390.00
2023-05-10T04:44:46.504Z,391.00
2023-05-10T04:45:46.457Z,393.00
2023-05-10T04:46:46.582Z,395.00
2023-05-10T04:47:46.625Z,395.00
2023-05-10T04:48:46.555Z,391.00
2023-05-10T04:49:46.581Z,390.00
2023-05-10T04:50:46.606Z,392.00
2023-05-10T04:51:46.660Z,390.00
2023-05-10T04:52:46.689Z,389.00
2023-05-10T04:54:01.678Z,387.00
2023-05-10T04:54:47.716Z,388.00
2023-05-10T04:55:46.712Z,389.00
2023-05-10T04:56:46.856Z,389.00
2023-05-10T04:57:46.687Z,388.00
2023-05-10T04:58:46.699Z,388.00
2023-05-10T04:59:48.001Z,386.00
2023-05-10T05:00:46.664Z,388.00
2023-05-10T05:01:46.688Z,389.00
2023-05-10T05:02:46.818Z,387.00
2023-05-10T05:03:46.735Z,389.00
2023-05-10T05:04:46.690Z,390.00
2023-05-10T05:05:46.763Z,392.00
2023-05-10T05:06:46.790Z,394.00
2023-05-10T05:07:46.821Z,394.00
2023-05-10T05:08:46.879Z,394.00
2023-05-10T05:09:46.891Z,395.00
2023-05-10T05:10:46.907Z,394.00
2023-05-10T05:11:46.981Z,394.00
2023-05-10T05:12:46.984Z,395.00
2023-05-10T05:13:46.996Z,391.00
2023-05-10T05:14:47.061Z,389.00
2023-05-10T05:15:47.138Z,392.00
2023-05-10T05:16:47.128Z,391.00
2023-05-10T05:17:47.197Z,392.00
2023-05-10T05:18:47.174Z,391.00
2023-05-10T05:19:47.235Z,393.00
2023-05-10T05:20:47.262Z,394.00
2023-05-10T05:21:47.313Z,393.00
2023-05-10T05:22:47.353Z,392.00
2023-05-10T05:23:47.399Z,395.00
2023-05-10T05:24:47.451Z,397.00
2023-05-10T05:25:47.464Z,398.00
2023-05-10T05:26:47.491Z,399.00
2023-05-10T05:27:47.500Z,398.00
2023-05-10T05:28:47.566Z,398.00
2023-05-10T05:29:47.582Z,404.00
2023-05-10T05:30:47.630Z,436.00
2023-05-10T05:31:47.693Z,479.00
2023-05-10T05:32:47.695Z,486.00
2023-05-10T05:33:47.739Z,563.00
2023-05-10T05:34:47.774Z,544.00
2023-05-10T05:35:47.813Z,561.00
2023-05-10T05:36:48.554Z,573.00
2023-05-10T05:37:47.880Z,650.00
2023-05-10T05:38:47.888Z,671.00
2023-05-10T05:39:47.930Z,700.00
2023-05-10T05:40:47.990Z,692.00
2023-05-10T05:41:48.001Z,695.00
2023-05-10T05:42:48.054Z,709.00
2023-05-10T05:43:48.057Z,743.00
2023-05-10T05:44:48.079Z,755.00
2023-05-10T05:45:48.119Z,768.00
2023-05-10T05:46:48.109Z,779.00
2023-05-10T05:47:48.206Z,779.00
2023-05-10T05:48:48.193Z,789.00
2023-05-10T05:49:48.609Z,806.00
2023-05-10T05:50:48.214Z,818.00
2023-05-10T05:51:48.304Z,836.00
2023-05-10T05:52:48.291Z,849.00
2023-05-10T05:53:48.315Z,855.00
2023-05-10T05:54:48.378Z,862.00
2023-05-10T05:55:48.362Z,867.00
2023-05-10T05:56:48.401Z,649.00
2023-05-10T05:57:48.431Z,730.00
2023-05-10T05:58:48.454Z,722.00
2023-05-10T05:59:48.469Z,716.00
2023-05-10T06:00:48.542Z,641.00
2023-05-10T06:01:48.533Z,561.00
2023-05-10T06:02:48.664Z,677.00
2023-05-10T06:03:49.854Z,657.00
2023-05-10T06:04:48.624Z,662.00
2023-05-10T06:05:48.657Z,664.00
2023-05-10T06:06:48.659Z,772.00
2023-05-10T06:07:48.702Z,683.00
2023-05-10T06:08:48.711Z,678.00
2023-05-10T06:09:48.735Z,678.00
2023-05-10T06:10:48.769Z,651.00
2023-05-10T06:11:48.781Z,758.00
2023-05-10T06:12:48.810Z,770.00
2023-05-10T06:13:48.839Z,655.00
2023-05-10T06:14:49.119Z,584.00
2023-05-10T06:15:48.851Z,771.00
2023-05-10T06:16:48.928Z,780.00
2023-05-10T06:17:48.998Z,770.00
2023-05-10T06:18:48.998Z,823.00
2023-05-10T06:19:49.112Z,834.00
2023-05-10T06:20:49.189Z,840.00
2023-05-10T06:21:49.165Z,848.00
2023-05-10T06:22:49.218Z,847.00
2023-05-10T06:23:49.256Z,853.00
2023-05-10T06:24:49.317Z,860.00
2023-05-10T06:25:49.332Z,873.00
2023-05-10T06:26:49.399Z,880.00
2023-05-10T06:27:51.948Z,883.00
2023-05-10T06:28:49.420Z,888.00
2023-05-10T06:29:52.164Z,893.00
2023-05-10T06:30:49.386Z,898.00
2023-05-10T06:31:49.393Z,901.00
2023-05-10T06:32:49.385Z,904.00
2023-05-10T06:33:49.367Z,912.00
2023-05-10T06:34:49.632Z,972.00
2023-05-10T06:35:49.362Z,896.00
2023-05-10T06:36:49.359Z,870.00
2023-05-10T06:37:49.337Z,779.00
2023-05-10T06:38:49.360Z,730.00
2023-05-10T06:39:49.672Z,715.00
2023-05-10T06:40:49.329Z,717.00
2023-05-10T06:41:49.313Z,700.00
2023-05-10T06:42:49.318Z,666.00
2023-05-10T06:43:49.349Z,671.00
2023-05-10T06:44:49.371Z,666.00
2023-05-10T06:45:49.472Z,665.00
2023-05-10T06:46:49.491Z,660.00
2023-05-10T06:47:49.497Z,663.00
2023-05-10T06:48:49.550Z,668.00
2023-05-10T06:49:49.552Z,683.00
2023-05-10T06:50:49.601Z,683.00
2023-05-10T06:51:49.640Z,675.00
2023-05-10T06:52:51.155Z,680.00
2023-05-10T06:53:49.686Z,681.00
2023-05-10T06:54:49.651Z,636.00
2023-05-10T06:55:49.646Z,645.00
2023-05-10T06:56:49.619Z,651.00
2023-05-10T06:57:49.630Z,645.00
2023-05-10T06:58:49.724Z,649.00
2023-05-10T06:59:49.610Z,662.00
2023-05-10T07:00:49.684Z,668.00
2023-05-10T07:01:49.626Z,665.00
2023-05-10T07:02:49.710Z,658.00
2023-05-10T07:03:49.585Z,630.00
2023-05-10T07:04:49.648Z,632.00
2023-05-10T07:05:49.563Z,630.00
2023-05-10T07:06:49.566Z,622.00
2023-05-10T07:07:49.548Z,620.00
2023-05-10T07:08:49.565Z,637.00
2023-05-10T07:09:49.541Z,643.00
2023-05-10T07:10:49.541Z,678.00
2023-05-10T07:11:49.520Z,676.00
2023-05-10T07:12:49.687Z,686.00
2023-05-10T07:13:49.551Z,762.00
2023-05-10T07:14:49.641Z,795.00
2023-05-10T07:15:49.512Z,828.00
2023-05-10T07:16:49.489Z,878.00
2023-05-10T07:17:49.560Z,891.00
2023-05-10T07:18:49.491Z,900.00
2023-05-10T07:19:49.484Z,938.00
2023-05-10T07:20:49.470Z,953.00
2023-05-10T07:21:49.462Z,966.00
2023-05-10T07:22:49.464Z,973.00
2023-05-10T07:23:49.484Z,982.00
2023-05-10T07:24:49.458Z,984.00
2023-05-10T07:25:49.434Z,978.00
2023-05-10T07:26:49.643Z,898.00
2023-05-10T07:27:49.476Z,883.00
2023-05-10T07:28:49.430Z,888.00
2023-05-10T07:29:49.438Z,876.00
2023-05-10T07:30:49.507Z,869.00
2023-05-10T07:31:49.685Z,850.00
2023-05-10T07:32:49.403Z,918.00
2023-05-10T07:33:49.381Z,931.00
2023-05-10T07:34:49.359Z,928.00
2023-05-10T07:35:49.369Z,929.00
2023-05-10T07:36:49.375Z,921.00
2023-05-10T07:37:49.366Z,926.00
2023-05-10T07:38:49.355Z,920.00
2023-05-10T07:39:49.353Z,918.00
2023-05-10T07:40:49.332Z,909.00
2023-05-10T07:41:49.337Z,898.00
2023-05-10T07:42:49.301Z,863.00
2023-05-10T07:43:49.340Z,858.00
2023-05-10T07:44:49.364Z,850.00
2023-05-10T07:45:49.413Z,743.00
2023-05-10T07:46:49.538Z,737.00
2023-05-10T07:47:49.504Z,748.00
2023-05-10T07:48:49.489Z,773.00
2023-05-10T07:49:49.658Z,745.00
2023-05-10T07:50:49.559Z,731.00
2023-05-10T07:51:49.600Z,723.00
2023-05-10T07:52:49.623Z,724.00
2023-05-10T07:53:49.692Z,715.00
2023-05-10T07:54:50.160Z,678.00
2023-05-10T07:55:49.774Z,795.00
2023-05-10T07:56:49.830Z,796.00
2023-05-10T07:57:49.859Z,796.00
2023-05-10T07:58:49.918Z,781.00
2023-05-10T07:59:50.165Z,715.00
2023-05-10T08:00:49.994Z,731.00
2023-05-10T08:01:50.006Z,714.00
2023-05-10T08:02:50.061Z,712.00
2023-05-10T08:03:50.177Z,708.00
2023-05-10T08:04:50.175Z,706.00
2023-05-10T08:05:50.193Z,713.00
2023-05-10T08:06:50.182Z,707.00
2023-05-10T08:07:50.188Z,715.00
2023-05-10T08:08:50.232Z,705.00
2023-05-10T08:09:50.219Z,716.00
2023-05-10T08:10:50.230Z,705.00
2023-05-10T08:11:50.231Z,705.00
2023-05-10T08:12:50.247Z,737.00
2023-05-10T08:13:50.292Z,772.00
2023-05-10T08:14:50.663Z,818.00
2023-05-10T08:15:50.365Z,851.00
2023-05-10T08:16:50.379Z,868.00
2023-05-10T08:17:50.421Z,880.00
2023-05-10T08:18:50.477Z,894.00
2023-05-10T08:19:50.673Z,903.00
2023-05-10T08:20:50.541Z,910.00
2023-05-10T08:21:50.556Z,909.00
2023-05-10T08:22:51.825Z,927.00
2023-05-10T08:23:50.646Z,959.00
2023-05-10T08:24:51.177Z,1028.00
2023-05-10T08:25:50.731Z,1057.00
2023-05-10T08:26:50.744Z,1056.00
2023-05-10T08:27:50.791Z,1061.00
2023-05-10T08:28:50.827Z,1077.00
2023-05-10T08:29:50.885Z,1085.00
2023-05-10T08:30:50.877Z,1146.00
2023-05-10T08:31:50.897Z,1127.00
2023-05-10T08:32:50.898Z,1119.00
2023-05-10T08:33:50.904Z,1122.00
2023-05-10T08:34:50.957Z,1107.00
2023-05-10T08:35:51.023Z,953.00
2023-05-10T08:36:51.017Z,989.00
2023-05-10T08:37:51.044Z,887.00
2023-05-10T08:38:52.119Z,911.00
2023-05-10T08:39:51.191Z,923.00
2023-05-10T08:40:51.126Z,921.00
2023-05-10T08:41:51.154Z,803.00
2023-05-10T08:42:51.185Z,834.00
2023-05-10T08:43:51.264Z,720.00
2023-05-10T08:44:51.702Z,560.00
2023-05-10T08:45:51.345Z,593.00
2023-05-10T08:46:51.430Z,521.00
2023-05-10T08:47:51.469Z,517.00
2023-05-10T08:48:51.462Z,503.00
2023-05-10T08:49:51.533Z,491.00
2023-05-10T08:50:51.681Z,485.00
2023-05-10T08:51:51.550Z,478.00
2023-05-10T08:52:51.604Z,469.00
2023-05-10T08:53:51.666Z,460.00
2023-05-10T08:54:51.779Z,459.00
2023-05-10T08:55:51.713Z,463.00
2023-05-10T08:56:51.703Z,467.00
2023-05-10T08:57:51.731Z,473.00
2023-05-10T08:58:51.717Z,475.00
2023-05-10T08:59:51.754Z,467.00
2023-05-10T09:00:51.830Z,468.00
2023-05-10T09:01:51.766Z,480.00
2023-05-10T09:02:51.878Z,492.00
2023-05-10T09:03:51.869Z,502.00
2023-05-10T09:04:51.964Z,513.00
2023-05-10T09:05:52.211Z,517.00
2023-05-10T09:06:51.826Z,520.00
2023-05-10T09:07:51.983Z,519.00
2023-05-10T09:08:51.850Z,520.00
2023-05-10T09:09:51.920Z,516.00
2023-05-10T09:10:52.183Z,517.00
2023-05-10T09:11:51.962Z,516.00
2023-05-10T09:12:52.171Z,516.00
2023-05-10T09:13:52.208Z,516.00
2023-05-10T09:14:52.093Z,520.00
2023-05-10T09:15:52.193Z,524.00
2023-05-10T09:16:52.200Z,526.00
2023-05-10T09:17:52.228Z,528.00
2023-05-10T09:18:52.230Z,527.00
2023-05-10T09:19:52.202Z,531.00
2023-05-10T09:20:52.682Z,530.00
2023-05-10T09:21:52.260Z,528.00
2023-05-10T09:22:52.271Z,524.00
2023-05-10T09:23:53.228Z,522.00
2023-05-10T09:24:52.315Z,521.00
2023-05-10T09:25:52.678Z,522.00
2023-05-10T09:26:52.339Z,560.00
2023-05-10T09:27:52.409Z,598.00
2023-05-10T09:28:52.401Z,679.00
2023-05-10T09:29:52.408Z,696.00
2023-05-10T09:30:52.488Z,702.00
2023-05-10T09:31:52.533Z,718.00
2023-05-10T09:32:52.530Z,734.00
2023-05-10T09:33:52.516Z,807.00
2023-05-10T09:34:52.548Z,837.00
2023-05-10T09:35:52.707Z,858.00
2023-05-10T09:36:52.594Z,884.00
2023-05-10T09:37:52.659Z,886.00
2023-05-10T09:38:52.719Z,938.00
2023-05-10T09:39:52.714Z,952.00
2023-05-10T09:40:53.198Z,987.00
2023-05-10T09:41:52.771Z,994.00
2023-05-10T09:42:52.783Z,1009.00
2023-05-10T09:43:52.806Z,1026.00
2023-05-10T09:44:52.859Z,1040.00
2023-05-10T09:45:53.225Z,1051.00
2023-05-10T09:46:52.931Z,1063.00
2023-05-10T09:47:53.053Z,1071.00
2023-05-10T09:48:53.007Z,1076.00
2023-05-10T09:49:53.089Z,1075.00
2023-05-10T09:50:53.038Z,1016.00
2023-05-10T09:51:53.076Z,1030.00
2023-05-10T09:52:53.085Z,1037.00
2023-05-10T09:53:53.166Z,1047.00
2023-05-10T09:54:53.179Z,1051.00
2023-05-10T09:55:53.209Z,1058.00
2023-05-10T09:56:53.220Z,1068.00
2023-05-10T09:57:53.243Z,1075.00
2023-05-10T09:58:53.253Z,1071.00
2023-05-10T09:59:53.271Z,1068.00
2023-05-10T10:00:53.314Z,1059.00
2023-05-10T10:01:53.327Z,1047.00
2023-05-10T10:02:53.392Z,1036.00
2023-05-10T10:03:53.381Z,1029.00
2023-05-10T10:04:53.482Z,1023.00
2023-05-10T10:05:53.438Z,1009.00
2023-05-10T10:06:53.453Z,955.00
2023-05-10T10:07:53.483Z,962.00
2023-05-10T10:08:56.181Z,971.00
2023-05-10T10:09:53.510Z,969.00
2023-05-10T10:10:53.500Z,966.00
2023-05-10T10:11:53.488Z,973.00
2023-05-10T10:12:53.464Z,988.00
2023-05-10T10:13:53.479Z,1000.00
2023-05-10T10:14:53.474Z,1011.00
2023-05-10T10:15:53.760Z,1021.00
2023-05-10T10:17:06.610Z,1020.00
2023-05-10T10:17:54.528Z,826.00
2023-05-10T10:18:53.442Z,818.00
2023-05-10T10:19:53.442Z,814.00
2023-05-10T10:20:53.407Z,849.00
2023-05-10T10:21:53.397Z,903.00
2023-05-10T10:22:53.404Z,765.00
2023-05-10T10:23:53.406Z,688.00
2023-05-10T10:24:53.399Z,653.00
2023-05-10T10:25:53.393Z,654.00
2023-05-10T10:26:53.380Z,634.00
2023-05-10T10:27:53.405Z,608.00
2023-05-10T10:28:53.367Z,593.00
2023-05-10T10:29:53.362Z,563.00
2023-05-10T10:30:53.359Z,543.00
2023-05-10T10:31:53.503Z,531.00
2023-05-10T10:32:53.407Z,517.00
2023-05-10T10:33:53.380Z,508.00
2023-05-10T10:34:53.378Z,500.00
2023-05-10T10:35:53.753Z,491.00
2023-05-10T10:36:53.419Z,478.00
2023-05-10T10:37:53.452Z,467.00
2023-05-10T10:38:53.490Z,458.00
2023-05-10T10:39:53.497Z,428.00
2023-05-10T10:40:53.531Z,438.00
2023-05-10T10:41:53.522Z,449.00
2023-05-10T10:42:53.544Z,456.00
2023-05-10T10:43:53.629Z,455.00
2023-05-10T10:44:53.623Z,461.00
2023-05-10T10:45:53.686Z,472.00
2023-05-10T10:46:53.726Z,483.00
2023-05-10T10:47:53.740Z,486.00
2023-05-10T10:48:53.759Z,494.00
2023-05-10T10:49:53.834Z,490.00
2023-05-10T10:50:53.861Z,492.00
2023-05-10T10:51:53.931Z,497.00
2023-05-10T10:52:54.033Z,497.00
2023-05-10T10:53:54.014Z,497.00
2023-05-10T10:54:54.072Z,501.00
2023-05-10T10:55:54.099Z,506.00
2023-05-10T10:56:54.136Z,500.00
2023-05-10T10:57:54.154Z,498.00
2023-05-10T10:58:54.191Z,496.00
2023-05-10T10:59:54.230Z,496.00
2023-05-10T11:00:54.336Z,495.00
2023-05-10T11:01:54.352Z,495.00
2023-05-10T11:02:54.469Z,488.00
2023-05-10T11:03:54.440Z,490.00
2023-05-10T11:04:54.471Z,490.00
2023-05-10T11:05:54.513Z,484.00
2023-05-10T11:06:54.548Z,472.00
2023-05-10T11:07:54.565Z,465.00
2023-05-10T11:08:54.605Z,458.00
2023-05-10T11:09:54.644Z,456.00
2023-05-10T11:10:54.672Z,453.00
2023-05-10T11:11:54.720Z,452.00
2023-05-10T11:12:54.748Z,449.00
2023-05-10T11:13:54.783Z,449.00
2023-05-10T11:14:54.818Z,449.00
2023-05-10T11:15:54.845Z,456.00
2023-05-10T11:16:54.900Z,461.00
2023-05-10T11:17:54.913Z,460.00
2023-05-10T11:18:55.040Z,461.00
2023-05-10T11:19:54.967Z,464.00
2023-05-10T11:20:54.996Z,468.00
2023-05-10T11:21:55.040Z,474.00
2023-05-10T11:22:55.068Z,478.00
2023-05-10T11:23:55.081Z,479.00
2023-05-10T11:24:55.097Z,480.00
2023-05-10T11:25:55.104Z,479.00
2023-05-10T11:26:55.112Z,481.00
2023-05-10T11:27:55.171Z,481.00
2023-05-10T11:28:55.236Z,479.00
2023-05-10T11:29:55.297Z,481.00
2023-05-10T11:30:55.319Z,481.00
2023-05-10T11:31:55.324Z,482.00
2023-05-10T11:32:55.386Z,483.00
2023-05-10T11:33:55.347Z,482.00
2023-05-10T11:34:55.353Z,482.00
2023-05-10T11:35:55.471Z,481.00
2023-05-10T11:36:55.435Z,480.00
2023-05-10T11:37:55.458Z,481.00
2023-05-10T11:38:55.449Z,478.00
2023-05-10T11:39:55.458Z,478.00
2023-05-10T11:40:55.498Z,476.00
2023-05-10T11:41:55.574Z,477.00
2023-05-10T11:42:55.619Z,475.00
2023-05-10T11:43:55.634Z,472.00
2023-05-10T11:44:55.671Z,471.00
2023-05-10T11:45:55.680Z,472.00
2023-05-10T11:46:55.730Z,472.00
2023-05-10T11:47:55.750Z,471.00
2023-05-10T11:48:55.750Z,470.00
2023-05-10T11:49:55.768Z,469.00
2023-05-10T11:50:55.748Z,468.00
2023-05-10T11:51:55.800Z,467.00
2023-05-10T11:52:55.822Z,466.00
2023-05-10T11:53:55.880Z,467.00
2023-05-10T11:54:55.964Z,464.00
2023-05-10T11:55:55.953Z,462.00
2023-05-10T11:56:55.977Z,462.00
2023-05-10T11:57:55.967Z,464.00
2023-05-10T11:58:56.025Z,463.00
2023-05-10T11:59:56.072Z,461.00
2023-05-10T12:00:56.130Z,460.00
2023-05-10T12:01:56.228Z,459.00
2023-05-10T12:02:56.464Z,457.00
2023-05-10T12:03:56.477Z,457.00
2023-05-10T12:04:56.360Z,454.00
2023-05-10T12:05:56.376Z,452.00
2023-05-10T12:06:56.748Z,452.00
2023-05-10T12:07:56.485Z,451.00
2023-05-10T12:08:56.497Z,449.00
2023-05-10T12:09:56.509Z,450.00
2023-05-10T12:10:56.509Z,450.00
2023-05-10T12:11:56.755Z,449.00
2023-05-10T12:12:56.528Z,450.00
2023-05-10T12:13:56.591Z,452.00
2023-05-10T12:14:56.633Z,453.00
2023-05-10T12:15:56.720Z,452.00
2023-05-10T12:16:56.797Z,452.00
2023-05-10T12:17:56.694Z,451.00
2023-05-10T12:18:56.821Z,448.00
2023-05-10T12:19:56.758Z,447.00
2023-05-10T12:20:56.775Z,444.00
2023-05-10T12:21:56.795Z,445.00
2023-05-10T12:22:58.937Z,446.00
2023-05-10T12:23:56.795Z,443.00
2023-05-10T12:24:56.792Z,441.00
2023-05-10T12:25:56.796Z,440.00
2023-05-10T12:26:56.769Z,443.00
2023-05-10T12:27:56.788Z,447.00